Time;durP1;ratioP1;P1;durP2;ratioP2;P2;SDS_P1;SDS_P2;PMS_P1;PMS_P2;Temp;Humidity;BMP_temperature;BMP_pressure;BME280_temperature;BME280_humidity;BME280_pressure;Samples;Min_cycle;Max_cycle;Signal;HPM_P1;HPM_P2
2021/07/03 00:00:30;;;;;;;10.13;6.32;;;;;;;9.04;100.00;93267.72;2096795;28;20028;-86
2021/07/03 00:01:30;;;;;;;7.07;6.10;;;;;;;9.04;100.00;93281.81;2098201;28;20024;-87
2021/07/03 00:02:31;;;;;;;8.98;6.35;;;;;;;9.01;100.00;93273.88;2097826;28;20520;-87
2021/07/03 00:03:32;;;;;;;7.25;6.53;;;;;;;9.01;100.00;93266.63;2091872;28;20024;-86
2021/07/03 00:04:32;;;;;;;7.03;6.18;;;;;;;9.04;100.00;93271.16;2088353;28;20108;-86
2021/07/03 00:05:33;;;;;;;7.20;6.20;;;;;;;9.09;100.00;93272.63;2087553;28;20118;-87
2021/07/03 00:06:34;;;;;;;6.85;6.07;;;;;;;9.03;100.00;93274.97;2089587;28;20021;-88
2021/07/03 00:07:34;;;;;;;6.97;5.90;;;;;;;8.99;100.00;93271.59;2089556;28;20021;-86
2021/07/03 00:08:35;;;;;;;6.97;6.03;;;;;;;8.95;100.00;93272.78;2091361;28;20384;-87
2021/07/03 00:09:37;;;;;;;7.90;6.97;;;;;;;8.93;100.00;93272.44;2101533;28;20024;-87
2021/07/03 00:10:39;;;;;;;6.43;5.80;;;;;;;8.94;100.00;93273.94;2085412;28;20021;-87
2021/07/03 00:11:40;;;;;;;9.60;6.28;;;;;;;8.87;100.00;93271.38;2091922;28;20115;-87
2021/07/03 00:12:41;;;;;;;7.05;6.05;;;;;;;8.89;100.00;93267.16;2091481;28;20381;-87
2021/07/03 00:13:41;;;;;;;7.72;6.28;;;;;;;8.89;100.00;93261.06;2089903;28;20051;-86
2021/07/03 00:14:43;;;;;;;7.93;6.30;;;;;;;8.89;100.00;93263.72;2097215;28;20012;-86
2021/07/03 00:15:44;;;;;;;8.10;6.28;;;;;;;8.83;100.00;93271.44;2100035;28;20052;-85
2021/07/03 00:16:44;;;;;;;7.20;6.22;;;;;;;8.89;100.00;93275.16;2098157;28;20070;-87
2021/07/03 00:17:45;;;;;;;6.13;5.55;;;;;;;8.87;100.00;93271.38;2095919;28;20016;-87
2021/07/03 00:18:47;;;;;;;7.95;5.93;;;;;;;8.85;100.00;93271.78;2091772;28;20021;-87
2021/07/03 00:19:48;;;;;;;10.45;6.03;;;;;;;8.80;100.00;93275.63;2101840;28;20050;-85
2021/07/03 00:20:49;;;;;;;7.28;6.43;;;;;;;8.87;100.00;93266.03;2106306;28;20024;-86
2021/07/03 00:21:50;;;;;;;7.18;5.70;;;;;;;8.86;100.00;93275.19;2113280;28;20015;-86
2021/07/03 00:22:51;;;;;;;10.20;6.25;;;;;;;8.78;100.00;93279.84;2100909;28;20062;-85
2021/07/03 00:23:52;;;;;;;6.90;6.20;;;;;;;8.70;100.00;93273.13;2097255;28;20490;-87
2021/07/03 00:24:52;;;;;;;7.65;6.18;;;;;;;8.68;100.00;93281.50;2106326;28;20055;-87
2021/07/03 00:25:53;;;;;;;8.15;5.90;;;;;;;8.73;100.00;93267.72;2081280;28;20044;-85
2021/07/03 00:26:54;;;;;;;8.30;6.32;;;;;;;8.75;100.00;93278.75;2088571;28;20051;-86
2021/07/03 00:27:54;;;;;;;6.85;6.25;;;;;;;8.74;100.00;93282.56;2099334;28;20021;-85
2021/07/03 00:28:55;;;;;;;8.23;6.28;;;;;;;8.71;100.00;93275.38;2094687;28;20099;-87
2021/07/03 00:29:56;;;;;;;6.97;6.25;;;;;;;8.69;100.00;93271.59;2089190;28;20410;-87
2021/07/03 00:30:57;;;;;;;7.10;6.28;;;;;;;8.69;100.00;93267.03;2097847;28;20048;-86
2021/07/03 00:31:57;;;;;;;6.50;5.90;;;;;;;8.73;100.00;93273.06;2101938;28;20023;-86
2021/07/03 00:32:58;;;;;;;7.03;6.32;;;;;;;8.73;100.00;93274.97;2105836;28;20023;-86
2021/07/03 00:33:59;;;;;;;6.65;6.00;;;;;;;8.73;100.00;93275.72;2097744;28;20020;-85
2021/07/03 00:35:00;;;;;;;6.20;5.60;;;;;;;8.76;100.00;93279.50;2089663;28;20017;-86
2021/07/03 00:36:01;;;;;;;7.85;5.75;;;;;;;8.70;100.00;93279.19;2099930;28;20511;-86
2021/07/03 00:37:02;;;;;;;5.95;5.35;;;;;;;8.68;100.00;93280.75;2090203;28;20025;-86
2021/07/03 00:38:02;;;;;;;6.60;6.00;;;;;;;8.66;100.00;93283.06;2097887;28;20020;-85
2021/07/03 00:39:03;;;;;;;6.35;5.18;;;;;;;8.64;100.00;93278.13;2105728;28;20493;-85
2021/07/03 00:40:05;;;;;;;7.00;5.70;;;;;;;8.61;100.00;93281.59;2096333;28;20021;-87
2021/07/03 00:41:06;;;;;;;7.20;5.80;;;;;;;8.58;100.00;93275.13;2091776;28;20024;-87
2021/07/03 00:42:06;;;;;;;6.63;5.78;;;;;;;8.61;100.00;93273.59;2098611;28;20512;-86
2021/07/03 00:43:07;;;;;;;6.70;5.95;;;;;;;8.60;100.00;93266.75;2099440;28;20063;-86
2021/07/03 00:44:08;;;;;;;9.13;5.80;;;;;;;8.54;100.00;93263.03;2105864;28;20020;-86
2021/07/03 00:45:10;;;;;;;7.95;5.60;;;;;;;8.56;100.00;93266.06;2097537;28;20081;-86
2021/07/03 00:46:10;;;;;;;6.75;6.05;;;;;;;8.56;100.00;93268.72;2096156;28;20013;-87
2021/07/03 00:47:11;;;;;;;6.60;6.00;;;;;;;8.58;100.00;93269.06;2089639;28;20037;-86
2021/07/03 00:48:12;;;;;;;6.18;5.57;;;;;;;8.60;100.00;93272.06;2097779;28;20016;-87
2021/07/03 00:49:12;;;;;;;6.30;5.53;;;;;;;8.58;100.00;93269.81;2098478;28;20024;-87
2021/07/03 00:50:13;;;;;;;8.00;6.50;;;;;;;8.52;100.00;93270.66;2091573;28;20031;-86
2021/07/03 00:51:14;;;;;;;6.32;5.70;;;;;;;8.54;100.00;93269.09;2090154;28;20765;-86
2021/07/03 00:52:15;;;;;;;6.30;5.68;;;;;;;8.57;100.00;93275.53;2090291;28;20032;-87
2021/07/03 00:53:16;;;;;;;8.23;5.97;;;;;;;8.58;100.00;93272.47;2094382;28;20026;-86
2021/07/03 00:54:20;;;;;;;7.13;6.03;;;;;;;8.57;100.00;93276.31;2094113;28;20021;-88
2021/07/03 00:55:20;;;;;;;5.90;5.35;;;;;;;8.53;100.00;93274.84;2095382;28;20053;-87
2021/07/03 00:56:21;;;;;;;6.78;6.07;;;;;;;8.52;100.00;93274.09;2101513;28;20031;-86
2021/07/03 00:57:22;;;;;;;8.35;5.50;;;;;;;8.51;100.00;93269.88;2093801;28;20021;-86
2021/07/03 00:58:23;;;;;;;7.00;6.00;;;;;;;8.51;100.00;93269.88;2091034;28;20166;-87
2021/07/03 00:59:23;;;;;;;7.95;6.57;;;;;;;8.45;100.00;93268.81;2088305;28;20598;-88
2021/07/03 01:00:24;;;;;;;7.68;5.53;;;;;;;8.49;100.00;93274.88;2097364;28;20048;-86
2021/07/03 01:01:25;;;;;;;10.68;6.43;;;;;;;8.49;100.00;93268.78;2097686;28;20107;-86
2021/07/03 01:02:25;;;;;;;8.00;5.80;;;;;;;8.41;100.00;93264.69;2089060;28;20025;-87
2021/07/03 01:03:26;;;;;;;6.50;5.70;;;;;;;8.43;100.00;93267.69;2090048;28;20082;-86
2021/07/03 01:04:27;;;;;;;6.85;5.47;;;;;;;8.39;100.00;93270.44;2097645;28;20054;-86
2021/07/03 01:05:28;;;;;;;6.82;5.75;;;;;;;8.42;100.00;93268.84;2089928;28;20118;-86
2021/07/03 01:06:29;;;;;;;5.95;5.35;;;;;;;8.45;100.00;93268.06;2097281;28;20020;-86
2021/07/03 01:07:30;;;;;;;9.70;6.60;;;;;;;8.43;100.00;93268.47;2106620;28;20016;-86
2021/07/03 01:08:31;;;;;;;7.55;6.25;;;;;;;8.39;100.00;93275.75;2096337;28;20901;-87
2021/07/03 01:09:32;;;;;;;8.30;5.70;;;;;;;8.41;100.00;93272.69;2089562;28;20021;-87
2021/07/03 01:10:33;;;;;;;7.15;6.00;;;;;;;8.41;100.00;93275.34;2096718;28;20032;-86
2021/07/03 01:11:34;;;;;;;8.95;6.47;;;;;;;8.40;100.00;93281.84;2095592;28;20400;-86
2021/07/03 01:12:35;;;;;;;9.52;6.25;;;;;;;8.36;100.00;93281.09;2095913;28;20436;-86
2021/07/03 01:13:35;;;;;;;8.65;5.72;;;;;;;8.34;100.00;93278.81;2098493;28;20071;-87
2021/07/03 01:14:47;;;;;;;7.22;5.75;;;;;;;8.35;100.00;93280.34;2089743;28;20025;-87
2021/07/03 01:15:48;;;;;;;6.20;5.53;;;;;;;8.35;100.00;93274.25;2101398;28;20028;-86
2021/07/03 01:16:48;;;;;;;6.78;5.97;;;;;;;8.28;100.00;93275.06;2098321;28;20016;-86
2021/07/03 01:17:50;;;;;;;7.30;5.90;;;;;;;8.30;100.00;93275.44;2098570;28;20028;-86
2021/07/03 01:18:50;;;;;;;8.23;5.63;;;;;;;8.30;100.00;93273.53;2098452;28;20771;-86
2021/07/03 01:19:51;;;;;;;7.50;5.68;;;;;;;8.32;100.00;93276.53;2106723;28;20032;-86
2021/07/03 01:20:53;;;;;;;8.07;5.78;;;;;;;8.31;100.00;93280.38;2094165;28;20094;-87
2021/07/03 01:21:56;;;;;;;7.78;6.00;;;;;;;8.32;100.00;93276.53;2096360;28;20031;-87
2021/07/03 01:22:56;;;;;;;6.47;5.65;;;;;;;8.27;100.00;93279.63;2105595;28;20019;-85
2021/07/03 01:23:57;;;;;;;8.10;5.82;;;;;;;8.27;100.00;93281.56;2097873;28;20029;-86
2021/07/03 01:24:58;;;;;;;5.50;5.00;;;;;;;8.18;100.00;93271.38;2089660;28;20414;-85
2021/07/03 01:25:59;;;;;;;5.90;5.38;;;;;;;8.25;100.00;93273.97;2097862;27;20024;-86
2021/07/03 01:27:00;;;;;;;7.65;5.70;;;;;;;8.22;100.00;93274.00;2095157;28;20544;-86
2021/07/03 01:28:05;;;;;;;6.35;5.70;;;;;;;8.17;100.00;93279.75;2089248;28;20027;-86
2021/07/03 01:29:06;;;;;;;7.95;6.03;;;;;;;8.14;100.00;93281.28;2099327;28;20027;-87
2021/07/03 01:30:10;;;;;;;6.05;5.43;;;;;;;8.13;100.00;93276.38;2090234;28;20028;-86
2021/07/03 01:31:10;;;;;;;6.07;5.32;;;;;;;8.13;100.00;93276.38;2099106;28;20082;-86
2021/07/03 01:32:12;;;;;;;6.15;5.50;;;;;;;8.12;100.00;93280.94;2100962;28;20058;-85
2021/07/03 01:33:13;;;;;;;7.38;6.07;;;;;;;8.13;100.00;93279.03;2088980;28;20021;-86
2021/07/03 01:34:16;;;;;;;6.25;5.30;;;;;;;8.11;100.00;93276.75;2086551;28;20032;-86
2021/07/03 01:35:16;;;;;;;5.95;5.35;;;;;;;8.13;100.00;93276.38;2096683;28;20031;-85
2021/07/03 01:36:17;;;;;;;6.95;5.85;;;;;;;8.12;100.00;93282.84;2096331;28;20031;-85
2021/07/03 01:37:18;;;;;;;8.10;5.60;;;;;;;8.07;100.00;93284.78;2090094;28;20115;-86
2021/07/03 01:38:21;;;;;;;8.82;5.93;;;;;;;8.04;100.00;93279.50;2098142;28;20024;-85
2021/07/03 01:39:23;;;;;;;13.00;5.60;;;;;;;8.04;100.00;93282.16;2114259;28;20046;-86
2021/07/03 01:40:25;;;;;;;5.95;5.22;;;;;;;8.03;100.00;93281.41;2105479;28;20039;-86
2021/07/03 01:41:25;;;;;;;6.50;5.60;;;;;;;8.05;100.00;93276.44;2098657;28;20078;-86
2021/07/03 01:42:26;;;;;;;6.90;6.13;;;;;;;8.05;100.00;93283.66;2095446;28;20074;-85
2021/07/03 01:43:28;;;;;;;6.78;6.13;;;;;;;8.01;100.00;93274.97;2096518;28;20021;-86
2021/07/03 01:46:26;;;;;;;5.70;5.15;;;;;;;8.02;100.00;93276.47;2113144;27;20455;-86
2021/07/03 01:47:26;;;;;;;8.10;5.25;;;;;;;8.00;100.00;93274.22;2106833;28;20118;-86
2021/07/03 01:48:30;;;;;;;6.00;5.40;;;;;;;7.98;100.00;93271.16;2097544;28;20155;-86
2021/07/03 01:49:39;;;;;;;6.88;5.72;;;;;;;7.90;100.00;93267.09;2096560;28;20016;-85
2021/07/03 01:50:40;;;;;;;6.03;5.43;;;;;;;7.89;100.00;93265.56;2099229;28;20516;-86
2021/07/03 01:51:40;;;;;;;7.88;5.97;;;;;;;7.86;100.00;93277.00;2106737;28;20051;-85
2021/07/03 01:52:42;;;;;;;5.82;5.30;;;;;;;7.89;100.00;93267.47;2088826;28;20443;-86
2021/07/03 01:53:43;;;;;;;7.40;5.82;;;;;;;7.89;100.00;93265.56;2096692;28;20028;-85
2021/07/03 01:54:44;;;;;;;6.80;6.10;;;;;;;7.85;100.00;93270.16;2096826;28;20024;-86
2021/07/03 01:55:45;;;;;;;7.70;5.63;;;;;;;7.87;100.00;93254.56;2106430;28;20502;-86
2021/07/03 01:56:57;;;;;;;6.50;5.50;;;;;;;7.84;100.00;93265.97;2098363;28;20025;-87
2021/07/03 01:57:57;;;;;;;7.45;5.88;;;;;;;7.87;100.00;93259.88;2099557;28;20026;-87
2021/07/03 01:58:58;;;;;;;8.10;6.20;;;;;;;7.87;100.00;93261.78;2099892;28;20055;-86
2021/07/03 01:59:59;;;;;;;6.88;5.70;;;;;;;7.82;100.00;93252.34;2106285;28;20074;-88
2021/07/03 02:01:00;;;;;;;5.85;5.25;;;;;;;7.85;100.00;93253.44;2099448;28;20017;-87
2021/07/03 02:02:03;;;;;;;6.82;5.72;;;;;;;7.81;100.00;93251.56;2097279;28;20020;-87
2021/07/03 02:03:03;;;;;;;7.70;5.75;;;;;;;7.76;100.00;93254.63;2096870;28;20489;-85
2021/07/03 02:06:04;;;;;;;;;;;;;;;7.79;100.00;93247.78;2120154;27;20196;-86
2021/07/03 02:07:05;;;;;;;8.32;5.88;;;;;;;7.78;100.00;93241.72;2113015;28;19957;-88
2021/07/03 02:08:06;;;;;;;6.47;5.45;;;;;;;7.74;100.00;93245.56;2104480;28;20496;-87
2021/07/03 02:09:07;;;;;;;8.60;5.75;;;;;;;7.73;100.00;93242.16;2102510;28;20086;-86
2021/07/03 02:10:08;;;;;;;9.75;5.90;;;;;;;7.72;100.00;93240.63;2104850;28;20016;-86
2021/07/03 02:11:09;;;;;;;9.95;5.82;;;;;;;7.73;100.00;93238.72;2109088;28;20027;-85
2021/07/03 02:12:10;;;;;;;7.70;5.65;;;;;;;7.70;100.00;93237.59;2106424;28;20020;-87
2021/07/03 02:13:10;;;;;;;8.10;5.95;;;;;;;7.65;100.00;93239.94;2108006;28;20027;-85
2021/07/03 02:14:11;;;;;;;6.82;6.13;;;;;;;7.67;100.00;93232.31;2117099;28;20028;-86
2021/07/03 02:15:12;;;;;;;6.60;5.97;;;;;;;7.70;100.00;93231.53;2119079;28;20026;-86
2021/07/03 02:16:13;;;;;;;6.65;5.97;;;;;;;7.69;100.00;93230.03;2111822;28;20058;-86
2021/07/03 02:17:13;;;;;;;7.35;5.70;;;;;;;7.69;100.00;93238.00;2106597;28;20499;-86
2021/07/03 02:18:14;;;;;;;6.00;5.13;;;;;;;7.68;100.00;93239.13;2104526;28;20914;-85
2021/07/03 02:19:15;;;;;;;13.60;6.40;;;;;;;7.66;100.00;93238.78;2102492;28;20099;-86
2021/07/03 02:20:16;;;;;;;7.05;5.63;;;;;;;7.66;100.00;93231.56;2104930;28;20044;-85
2021/07/03 02:21:17;;;;;;;6.28;5.55;;;;;;;7.69;100.00;93236.09;2105555;28;20028;-87
2021/07/03 02:22:17;;;;;;;8.73;5.43;;;;;;;7.65;100.00;93234.63;2093127;28;20469;-85
2021/07/03 02:23:18;;;;;;;6.15;5.55;;;;;;;7.63;100.00;93234.25;2103878;28;20024;-87
2021/07/03 02:24:19;;;;;;;6.55;5.35;;;;;;;7.55;100.00;93239.63;2110350;28;20028;-88
2021/07/03 02:25:20;;;;;;;7.85;5.53;;;;;;;7.55;100.00;93231.66;2098042;28;20101;-85
2021/07/03 02:26:22;;;;;;;7.28;5.80;;;;;;;7.60;100.00;93237.72;2102199;28;20031;-85
2021/07/03 02:27:23;;;;;;;11.77;5.72;;;;;;;7.57;100.00;93242.66;2104389;28;20809;-85
2021/07/03 02:28:24;;;;;;;6.57;5.70;;;;;;;7.60;100.00;93237.72;2112764;28;20032;-86
2021/07/03 02:29:25;;;;;;;6.63;5.93;;;;;;;7.62;100.00;93232.75;2116960;28;20361;-85
2021/07/03 02:30:27;;;;;;;8.60;5.68;;;;;;;7.62;100.00;93235.41;2101055;28;20039;-86
2021/07/03 02:31:28;;;;;;;7.68;6.13;;;;;;;7.64;100.00;93235.75;2101733;28;20495;-85
2021/07/03 02:32:28;;;;;;;7.55;5.78;;;;;;;7.62;100.00;93233.50;2108241;28;20043;-86
2021/07/03 02:33:29;;;;;;;6.43;5.82;;;;;;;7.55;100.00;93236.97;2095610;28;20496;-86
2021/07/03 02:34:30;;;;;;;7.15;6.05;;;;;;;7.59;100.00;93242.25;2112875;28;20038;-86
2021/07/03 02:35:30;;;;;;;6.07;5.47;;;;;;;7.55;100.00;93244.19;2110131;28;20030;-86
2021/07/03 02:36:31;;;;;;;6.28;5.65;;;;;;;7.49;100.00;93246.50;2095365;28;20107;-85
2021/07/03 02:37:32;;;;;;;6.45;5.78;;;;;;;7.52;100.00;93245.75;2095802;28;20345;-86
2021/07/03 02:38:33;;;;;;;6.43;5.68;;;;;;;7.50;100.00;93248.00;2095249;28;20020;-85
2021/07/03 02:39:34;;;;;;;6.13;5.53;;;;;;;7.44;100.00;93248.84;2098144;28;20558;-86
2021/07/03 02:40:34;;;;;;;8.35;5.65;;;;;;;7.52;100.00;93247.66;2099656;28;20013;-86
2021/07/03 02:41:35;;;;;;;6.35;5.75;;;;;;;7.55;100.00;93236.97;2100066;28;20523;-86
2021/07/03 02:42:36;;;;;;;6.05;5.55;;;;;;;7.51;100.00;93243.47;2114848;28;20039;-85
2021/07/03 02:43:38;;;;;;;6.25;5.65;;;;;;;7.51;100.00;93244.22;2112921;28;20103;-86
2021/07/03 02:44:38;;;;;;;7.60;5.95;;;;;;;7.47;100.00;93245.41;2110077;28;20157;-86
2021/07/03 02:45:39;;;;;;;6.03;5.43;;;;;;;7.48;100.00;93246.91;2086958;28;20017;-84
2021/07/03 02:46:40;;;;;;;8.60;5.93;;;;;;;7.42;100.00;93243.16;2099355;28;20021;-85
2021/07/03 02:47:41;;;;;;;6.78;5.60;;;;;;;7.43;100.00;93240.13;2102154;28;20020;-86
2021/07/03 02:48:42;;;;;;;5.55;5.05;;;;;;;7.40;100.00;93245.47;2095740;28;20035;-86
2021/07/03 02:49:43;;;;;;;7.95;5.70;;;;;;;7.38;100.00;93243.19;2091686;28;20512;-85
2021/07/03 02:50:44;;;;;;;6.82;5.13;;;;;;;7.40;100.00;93250.78;2090218;28;20017;-85
2021/07/03 02:51:44;;;;;;;7.35;5.68;;;;;;;7.42;100.00;93246.59;2100101;28;20021;-86
2021/07/03 02:52:45;;;;;;;8.23;5.68;;;;;;;7.43;100.00;93236.69;2110240;28;20019;-86
2021/07/03 02:53:45;;;;;;;6.20;5.60;;;;;;;7.43;100.00;93237.44;2112328;28;20023;-86
2021/07/03 02:54:48;;;;;;;6.80;5.70;;;;;;;7.38;100.00;93237.88;2102473;28;20066;-86
2021/07/03 02:55:49;;;;;;;8.02;5.90;;;;;;;7.40;100.00;93246.22;2111212;28;20547;-86
2021/07/03 02:56:50;;;;;;;6.43;5.40;;;;;;;7.39;100.00;93239.38;2104127;28;20027;-85
2021/07/03 02:57:53;;;;;;;6.68;5.45;;;;;;;7.42;100.00;93232.50;2095396;28;20749;-86
2021/07/03 02:58:54;;;;;;;6.43;5.82;;;;;;;7.41;100.00;93236.31;2090133;28;20047;-86
2021/07/03 02:59:54;;;;;;;9.60;6.13;;;;;;;7.45;100.00;93235.16;2102390;28;20369;-86
2021/07/03 03:00:55;;;;;;;7.72;5.75;;;;;;;7.31;100.00;93237.91;2099791;28;20114;-85
2021/07/03 03:01:56;;;;;;;8.10;5.88;;;;;;;7.38;100.00;93237.88;2104137;28;20998;-86
2021/07/03 03:02:56;;;;;;;6.55;5.93;;;;;;;7.41;100.00;93236.31;2103801;28;20024;-85
2021/07/03 03:03:57;;;;;;;6.50;5.35;;;;;;;7.42;100.00;93240.50;2105004;28;20031;-86
2021/07/03 03:04:58;;;;;;;11.07;5.95;;;;;;;7.39;100.00;93236.72;2102969;28;20016;-86
2021/07/03 03:05:58;;;;;;;7.70;5.55;;;;;;;7.34;100.00;93239.06;2095276;28;20040;-86
2021/07/03 03:06:59;;;;;;;7.00;5.53;;;;;;;7.36;100.00;93234.84;2095575;28;20024;-86
2021/07/03 03:08:00;;;;;;;6.55;5.38;;;;;;;7.30;100.00;93233.75;2094698;28;20389;-86
2021/07/03 03:09:00;;;;;;;7.00;6.03;;;;;;;7.30;100.00;93236.41;2094808;28;20023;-86
2021/07/03 03:10:03;;;;;;;6.38;5.75;;;;;;;7.32;100.00;93240.19;2092626;28;20028;-86
2021/07/03 03:11:03;;;;;;;6.20;5.00;;;;;;;7.28;100.00;93236.78;2095884;28;20107;-86
2021/07/03 03:12:05;;;;;;;6.78;6.18;;;;;;;7.28;100.00;93236.03;2095462;28;20473;-85
2021/07/03 03:13:05;;;;;;;6.10;5.50;;;;;;;7.27;100.00;93235.28;2098593;28;20039;-86
2021/07/03 03:14:06;;;;;;;6.63;5.75;;;;;;;7.30;100.00;93236.41;2107885;28;20039;-85
2021/07/03 03:15:09;;;;;;;5.70;5.20;;;;;;;7.31;100.00;93238.69;2103532;28;20105;-86
2021/07/03 03:16:10;;;;;;;6.65;5.03;;;;;;;7.30;100.00;93236.41;2108551;28;20019;-85
2021/07/03 03:17:11;;;;;;;6.70;5.65;;;;;;;7.31;100.00;93237.91;2102116;28;20025;-86
2021/07/03 03:18:12;;;;;;;7.68;5.65;;;;;;;7.29;100.00;93233.00;2095862;28;21198;-86
2021/07/03 03:19:12;;;;;;;6.35;5.75;;;;;;;7.28;100.00;93234.13;2094370;28;20592;-86
2021/07/03 03:20:13;;;;;;;7.50;6.43;;;;;;;7.26;100.00;93230.38;2088971;28;20652;-85
2021/07/03 03:21:14;;;;;;;6.00;5.40;;;;;;;7.29;100.00;93237.56;2097351;28;20082;-85
2021/07/03 03:22:14;;;;;;;6.28;5.43;;;;;;;7.23;100.00;93231.13;2096951;28;20027;-85
2021/07/03 03:23:15;;;;;;;5.95;5.18;;;;;;;7.24;100.00;93232.66;2090121;28;20027;-85
2021/07/03 03:24:17;;;;;;;8.00;5.47;;;;;;;7.18;100.00;93227.00;2092217;28;20017;-86
2021/07/03 03:25:17;;;;;;;6.30;5.55;;;;;;;7.21;100.00;93228.88;2093282;28;20021;-85
2021/07/03 03:26:18;;;;;;;6.82;5.60;;;;;;;7.22;100.00;93238.38;2089770;28;20055;-86
2021/07/03 03:27:19;;;;;;;6.78;5.25;;;;;;;7.21;100.00;93230.78;2089836;28;20466;-86
2021/07/03 03:28:20;;;;;;;6.68;5.38;;;;;;;7.23;100.00;93231.13;2089907;28;20032;-86
2021/07/03 03:29:20;;;;;;;8.70;5.60;;;;;;;7.18;100.00;93242.94;2098147;28;20066;-86
2021/07/03 03:30:21;;;;;;;6.55;5.30;;;;;;;7.20;100.00;93239.88;2091804;28;20021;-85
2021/07/03 03:31:22;;;;;;;5.80;5.30;;;;;;;7.20;100.00;93232.69;2081855;28;20069;-86
2021/07/03 03:32:22;;;;;;;5.72;5.13;;;;;;;7.22;100.00;93242.94;2081840;28;20523;-85
2021/07/03 03:33:23;;;;;;;5.85;4.60;;;;;;;7.19;100.00;93239.13;2089281;28;20163;-84
2021/07/03 03:34:24;;;;;;;6.97;6.00;;;;;;;7.21;100.00;93239.50;2089946;28;20031;-86
2021/07/03 03:35:24;;;;;;;7.20;5.25;;;;;;;7.18;100.00;93231.56;2098048;28;20079;-86
2021/07/03 03:36:25;;;;;;;6.80;5.82;;;;;;;7.11;100.00;93232.34;2098678;28;20021;-86
2021/07/03 03:37:26;;;;;;;5.93;5.10;;;;;;;7.12;100.00;93230.47;2089869;28;20055;-86
2021/07/03 03:38:27;;;;;;;8.13;5.25;;;;;;;7.09;100.00;93239.97;2095318;28;20035;-86
2021/07/03 03:39:27;;;;;;;6.15;5.18;;;;;;;7.14;100.00;93233.47;2098658;28;20044;-85
2021/07/03 03:40:28;;;;;;;7.07;5.47;;;;;;;7.10;100.00;93238.81;2101246;28;20028;-85
2021/07/03 03:41:29;;;;;;;6.30;5.70;;;;;;;7.12;100.00;93241.09;2096925;28;20040;-85
2021/07/03 03:42:30;;;;;;;6.47;5.88;;;;;;;7.14;100.00;93241.47;2098385;28;20035;-85
2021/07/03 03:43:30;;;;;;;5.82;5.28;;;;;;;7.12;100.00;93241.84;2092823;28;20111;-86
2021/07/03 03:44:31;;;;;;;6.32;5.72;;;;;;;7.13;100.00;93235.38;2097258;28;20070;-84
2021/07/03 03:45:32;;;;;;;6.57;5.97;;;;;;;7.14;100.00;93239.56;2085398;28;20021;-85
2021/07/03 03:46:33;;;;;;;8.35;5.45;;;;;;;7.16;100.00;93233.88;2097916;28;20017;-86
2021/07/03 03:47:33;;;;;;;8.50;5.43;;;;;;;7.16;100.00;93233.88;2098133;28;20021;-87
2021/07/03 03:48:34;;;;;;;6.35;5.63;;;;;;;7.15;100.00;93230.44;2098109;28;20495;-86
2021/07/03 03:49:35;;;;;;;5.90;5.28;;;;;;;7.14;100.00;93239.56;2089893;28;20024;-86
2021/07/03 03:50:36;;;;;;;5.95;5.30;;;;;;;7.15;100.00;93235.75;2081546;28;20025;-85
2021/07/03 03:51:37;;;;;;;6.20;5.38;;;;;;;7.11;100.00;93244.88;2090077;28;20020;-86
2021/07/03 03:52:38;;;;;;;5.55;5.05;;;;;;;7.16;100.00;93237.28;2089843;28;20476;-86
2021/07/03 03:53:38;;;;;;;6.47;5.85;;;;;;;7.17;100.00;93243.34;2093789;28;20067;-86
2021/07/03 03:54:39;;;;;;;6.53;5.25;;;;;;;7.20;100.00;93238.00;2092482;28;20086;-85
2021/07/03 03:55:40;;;;;;;6.55;5.75;;;;;;;7.20;100.00;93234.56;2089720;28;20017;-86
2021/07/03 03:56:41;;;;;;;6.05;5.45;;;;;;;7.19;100.00;93238.38;2089870;28;20021;-86
2021/07/03 03:57:42;;;;;;;7.40;5.25;;;;;;;7.18;100.00;93239.53;2089564;28;20082;-85
2021/07/03 03:58:42;;;;;;;7.82;5.65;;;;;;;7.22;100.00;93234.94;2091907;28;20025;-85
2021/07/03 03:59:43;;;;;;;6.45;5.85;;;;;;;7.28;100.00;93236.78;2098184;28;20522;-86
2021/07/03 04:00:44;;;;;;;6.30;5.70;;;;;;;7.30;100.00;93233.75;2097947;28;20115;-85
2021/07/03 04:01:45;;;;;;;6.35;5.45;;;;;;;7.26;100.00;93227.72;2097958;28;20013;-86
2021/07/03 04:02:46;;;;;;;7.50;5.65;;;;;;;7.31;100.00;93222.72;2102979;28;20579;-85
2021/07/03 04:03:46;;;;;;;6.22;5.63;;;;;;;7.34;100.00;93217.78;2097073;28;20040;-85
2021/07/03 04:04:50;;;;;;;6.65;5.68;;;;;;;7.35;100.00;93225.34;2092414;28;20444;-86
2021/07/03 04:05:51;;;;;;;7.85;5.32;;;;;;;7.35;100.00;93221.94;2097611;28;20075;-85
2021/07/03 04:06:51;;;;;;;5.55;4.97;;;;;;;7.38;100.00;93216.59;2091698;28;20016;-87
2021/07/03 04:07:53;;;;;;;6.38;5.78;;;;;;;7.35;100.00;93221.94;2097130;28;20017;-85
2021/07/03 04:08:53;;;;;;;6.20;5.55;;;;;;;7.39;100.00;93218.09;2083692;28;20021;-86
2021/07/03 04:09:54;;;;;;;6.65;5.95;;;;;;;7.39;100.00;93220.00;2095534;28;20024;-85
2021/07/03 04:10:55;;;;;;;6.13;5.50;;;;;;;7.40;100.00;93218.88;2102412;28;20046;-85
2021/07/03 04:11:56;;;;;;;6.32;5.50;;;;;;;7.46;100.00;93220.72;2110514;28;20027;-84
2021/07/03 04:12:56;;;;;;;6.60;5.85;;;;;;;7.42;100.00;93220.00;2106378;28;20028;-85
2021/07/03 04:13:57;;;;;;;6.20;5.60;;;;;;;7.44;100.00;93222.25;2095891;28;20021;-85
2021/07/03 04:14:58;;;;;;;5.95;5.35;;;;;;;7.49;100.00;93219.91;2089217;28;20020;-86
2021/07/03 04:15:59;;;;;;;7.22;5.68;;;;;;;7.50;100.00;93216.09;2091829;28;20020;-86
2021/07/03 04:17:00;;;;;;;6.13;5.18;;;;;;;7.51;100.00;93217.63;2091830;28;20028;-86
2021/07/03 04:18:01;;;;;;;6.85;5.82;;;;;;;7.53;100.00;93217.97;2090659;28;20044;-85
2021/07/03 04:19:02;;;;;;;6.50;5.43;;;;;;;7.56;100.00;93216.44;2089715;28;20017;-86
2021/07/03 04:20:05;;;;;;;6.57;5.50;;;;;;;7.57;100.00;93220.63;2097899;28;20115;-86
2021/07/03 04:21:05;;;;;;;5.40;4.90;;;;;;;7.61;100.00;93218.69;2097352;28;20146;-86
2021/07/03 04:22:06;;;;;;;5.78;5.18;;;;;;;7.61;100.00;93221.34;2084837;28;20094;-86
2021/07/03 04:23:07;;;;;;;6.97;5.65;;;;;;;7.63;100.00;93221.69;2097611;28;20023;-86
2021/07/03 04:24:08;;;;;;;6.28;5.68;;;;;;;7.66;100.00;93225.47;2095666;28;20024;-85
2021/07/03 04:25:11;;;;;;;7.22;5.07;;;;;;;7.68;100.00;93223.16;2089451;28;20021;-86
2021/07/03 04:26:12;;;;;;;6.07;5.47;;;;;;;7.69;100.00;93214.06;2088740;28;20107;-86
2021/07/03 04:27:13;;;;;;;6.82;6.13;;;;;;;7.69;100.00;93225.47;2097544;28;20020;-86
2021/07/03 04:28:14;;;;;;;7.38;5.25;;;;;;;7.71;100.00;93223.16;2098096;28;20591;-86
2021/07/03 04:29:15;;;;;;;6.50;5.90;;;;;;;7.74;100.00;93221.63;2091988;28;20074;-86
2021/07/03 04:30:16;;;;;;;6.32;5.72;;;;;;;7.75;100.00;93223.88;2093883;28;20074;-87
2021/07/03 04:31:17;;;;;;;6.10;5.50;;;;;;;7.80;100.00;93220.78;2096934;28;20508;-85
2021/07/03 04:32:18;;;;;;;6.38;5.78;;;;;;;7.81;100.00;93211.66;2095667;28;20024;-85
2021/07/03 04:33:19;;;;;;;7.72;5.57;;;;;;;7.87;100.00;93211.22;2103323;28;20024;-86
2021/07/03 04:34:20;;;;;;;6.38;5.78;;;;;;;7.87;100.00;93209.31;2093780;28;20087;-86
2021/07/03 04:35:21;;;;;;;5.80;4.97;;;;;;;7.89;100.00;93212.31;2097202;28;20027;-86
2021/07/03 04:36:22;;;;;;;5.95;5.45;;;;;;;7.89;100.00;93214.25;2089509;28;20025;-86
2021/07/03 04:37:22;;;;;;;5.85;5.25;;;;;;;7.95;100.00;93216.09;2089744;28;20029;-86
2021/07/03 04:38:23;;;;;;;6.60;6.00;;;;;;;7.95;100.00;93210.75;2097597;28;20028;-85
2021/07/03 04:39:25;;;;;;;7.40;6.03;;;;;;;7.99;100.00;93213.38;2087139;28;20028;-86
2021/07/03 04:40:25;;;;;;;7.15;5.32;;;;;;;8.04;100.00;93210.28;2095934;28;20428;-86
2021/07/03 04:41:26;;;;;;;7.25;6.22;;;;;;;8.06;100.00;93213.31;2092886;28;20032;-86
2021/07/03 04:42:27;;;;;;;6.55;5.75;;;;;;;8.10;100.00;93205.28;2087521;28;20155;-86
2021/07/03 04:43:27;;;;;;;6.43;5.82;;;;;;;8.16;100.00;93215.09;2092039;28;20048;-86
2021/07/03 04:44:28;;;;;;;5.95;5.35;;;;;;;8.21;100.00;93216.56;2094929;28;20111;-88
2021/07/03 04:45:29;;;;;;;7.57;5.85;;;;;;;8.25;100.00;93206.63;2089131;28;21328;-88
2021/07/03 04:46:29;;;;;;;6.55;5.80;;;;;;;8.27;100.00;93214.97;2094610;28;20024;-86
2021/07/03 04:47:30;;;;;;;6.70;6.10;;;;;;;8.32;100.00;93217.19;2101678;28;20024;-87
2021/07/03 04:48:31;;;;;;;7.18;6.47;;;;;;;8.37;100.00;93216.78;2088321;28;20037;-86
2021/07/03 04:49:32;;;;;;;6.80;6.10;;;;;;;8.41;100.00;93225.50;2089367;28;20048;-86
2021/07/03 04:50:33;;;;;;;7.28;6.40;;;;;;;8.48;100.00;93225.41;2089263;28;20029;-87
2021/07/03 04:51:34;;;;;;;7.30;6.05;;;;;;;8.56;100.00;93220.75;2089048;28;20086;-86